Time;durP1;ratioP1;P1;durP2;ratioP2;P2;SDS_P1;SDS_P2;PMS_P1;PMS_P2;Temp;Humidity;BMP_temperature;BMP_pressure;BME280_temperature;BME280_humidity;BME280_pressure;Samples;Min_cycle;Max_cycle;Signal;HPM_P1;HPM_P2
2023/04/18 00:01:22;;;;;;;7.95;5.90;;;;;10.30;99058.00;;;;5057269;28;20094;-61
2023/04/18 00:03:49;;;;;;;10.55;6.93;;;;;10.20;99057.00;;;;5055264;28;20045;-59
2023/04/18 00:06:16;;;;;;;8.40;6.20;;;;;10.10;99058.00;;;;5055141;28;20124;-60
2023/04/18 00:08:42;;;;;;;9.85;6.05;;;;;10.10;99051.00;;;;5054233;28;20379;-59
2023/04/18 00:11:09;;;;;;;10.43;7.15;;;;;10.00;99052.00;;;;5054327;28;20106;-59
2023/04/18 00:13:37;;;;;;;9.65;6.13;;;;;10.00;99050.00;;;;5054416;28;20063;-60
2023/04/18 00:16:04;;;;;;;10.57;7.03;;;;;10.00;99051.00;;;;5052075;28;20579;-60
2023/04/18 00:18:31;;;;;;;9.35;7.03;;;;;10.00;99048.00;;;;5051783;28;20049;-58
2023/04/18 00:20:57;;;;;;;11.30;6.35;;;;;9.90;99039.00;;;;5051865;28;20371;-58
2023/04/18 00:23:26;;;;;;;9.50;6.80;;;;;9.80;99037.00;;;;5052031;28;20041;-59
2023/04/18 00:25:53;;;;;;;11.70;7.93;;;;;9.70;99042.00;;;;5052046;28;20410;-60
2023/04/18 00:28:19;;;;;;;8.73;6.35;;;;;9.70;99039.00;;;;5051754;28;20110;-61
2023/04/18 00:30:47;;;;;;;9.52;6.30;;;;;9.60;99039.00;;;;5051684;28;20032;-61
2023/04/18 00:33:14;;;;;;;12.00;7.32;;;;;9.50;99041.00;;;;5050531;28;20049;-60
2023/04/18 00:35:41;;;;;;;9.43;6.95;;;;;9.50;99042.00;;;;5034131;28;20045;-59
2023/04/18 00:38:07;;;;;;;8.20;6.20;;;;;9.50;99038.00;;;;5050588;28;20052;-58
2023/04/18 00:40:35;;;;;;;10.85;6.85;;;;;9.60;99041.00;;;;5051541;28;20060;-58
2023/04/18 00:43:01;;;;;;;8.70;6.60;;;;;9.60;99038.00;;;;5050643;28;20174;-60
2023/04/18 00:45:28;;;;;;;12.48;7.10;;;;;9.70;99039.00;;;;5051809;28;20548;-58
2023/04/18 00:47:55;;;;;;;10.65;6.82;;;;;9.60;99035.00;;;;5051812;28;20052;-59
2023/04/18 00:50:22;;;;;;;13.00;7.32;;;;;9.60;99043.00;;;;5050376;28;20045;-59
2023/04/18 00:52:49;;;;;;;9.27;7.15;;;;;9.50;99039.00;;;;5050444;28;20049;-59
2023/04/18 00:55:17;;;;;;;11.32;7.65;;;;;9.50;99029.00;;;;5051730;28;20401;-58
2023/04/18 00:57:43;;;;;;;11.13;6.43;;;;;9.50;99031.00;;;;5053149;28;20053;-60
2023/04/18 01:00:11;;;;;;;10.88;7.00;;;;;9.40;99036.00;;;;5051050;28;20048;-60
2023/04/18 01:02:38;;;;;;;9.68;6.95;;;;;9.40;99030.00;;;;5052122;28;20102;-60
2023/04/18 01:05:06;;;;;;;8.65;6.65;;;;;9.40;99030.00;;;;5052231;28;20496;-61
2023/04/18 01:07:36;;;;;;;9.80;6.75;;;;;9.50;99023.00;;;;5052101;28;20587;-61
2023/04/18 01:10:03;;;;;;;15.70;7.45;;;;;9.40;99022.00;;;;5052058;28;20065;-58
2023/04/18 01:12:30;;;;;;;9.15;6.57;;;;;9.40;99022.00;;;;5051967;28;20120;-60
2023/04/18 01:14:57;;;;;;;13.63;8.10;;;;;9.40;99024.00;;;;5050121;28;20049;-59
2023/04/18 01:17:24;;;;;;;9.57;7.20;;;;;9.40;99016.00;;;;5051288;28;20053;-61
2023/04/18 01:19:50;;;;;;;11.38;7.70;;;;;9.40;99019.00;;;;5053677;28;20099;-60
2023/04/18 01:22:18;;;;;;;10.38;6.93;;;;;9.30;99018.00;;;;5055109;28;20048;-59
2023/04/18 01:24:45;;;;;;;10.15;7.47;;;;;9.20;99010.00;;;;5055232;28;20402;-59
2023/04/18 01:27:14;;;;;;;11.73;7.90;;;;;9.20;99006.00;;;;5055093;28;20064;-60
2023/04/18 01:29:41;;;;;;;11.55;7.45;;;;;9.10;99008.00;;;;5054798;28;20402;-58
2023/04/18 01:32:07;;;;;;;12.88;7.47;;;;;9.00;98998.00;;;;5055033;28;20099;-59
2023/04/18 01:34:35;;;;;;;9.48;6.97;;;;;9.00;98999.00;;;;5053711;28;20075;-58
2023/04/18 01:37:04;;;;;;;12.63;7.38;;;;;8.90;99001.00;;;;5053658;28;20395;-59
2023/04/18 01:39:31;;;;;;;11.38;7.68;;;;;8.90;98994.00;;;;5054544;28;20033;-58
2023/04/18 01:42:00;;;;;;;11.35;7.63;;;;;8.80;98993.00;;;;5054753;28;20041;-59
2023/04/18 01:44:26;;;;;;;10.52;7.93;;;;;8.70;98979.00;;;;5053499;28;20053;-60
2023/04/18 01:46:53;;;;;;;9.88;6.97;;;;;8.60;98986.00;;;;5053551;28;20056;-60
2023/04/18 01:49:19;;;;;;;12.30;8.00;;;;;8.70;98986.00;;;;5054542;28;20136;-59
2023/04/18 01:51:48;;;;;;;12.88;8.00;;;;;8.70;98985.00;;;;5054696;28;20124;-59
2023/04/18 01:54:14;;;;;;;12.57;8.07;;;;;8.70;98983.00;;;;5053358;28;20476;-59
2023/04/18 01:56:41;;;;;;;11.80;7.90;;;;;8.70;98983.00;;;;5054547;28;20401;-59
2023/04/18 01:59:08;;;;;;;12.85;7.82;;;;;8.60;98980.00;;;;5052864;28;20593;-60
2023/04/18 02:01:35;;;;;;;14.35;8.38;;;;;8.60;98972.00;;;;5052994;28;20053;-59
2023/04/18 02:04:01;;;;;;;11.63;8.07;;;;;8.60;98983.00;;;;5054358;28;20510;-58
2023/04/18 02:06:28;;;;;;;10.60;8.00;;;;;8.60;98985.00;;;;5054430;28;20051;-60
2023/04/18 02:08:54;;;;;;;10.73;7.32;;;;;8.50;98982.00;;;;5054420;28;20048;-59
2023/04/18 02:11:23;;;;;;;11.00;7.82;;;;;8.50;98978.00;;;;5054297;28;20037;-59
2023/04/18 02:13:51;;;;;;;12.80;8.80;;;;;8.40;98978.00;;;;5053260;28;20057;-58
2023/04/18 02:16:17;;;;;;;10.85;8.30;;;;;8.40;98977.00;;;;5054465;28;20045;-60
2023/04/18 02:18:44;;;;;;;13.95;8.07;;;;;8.40;98974.00;;;;5052599;28;20075;-59
2023/04/18 02:21:12;;;;;;;12.68;8.27;;;;;8.40;98968.00;;;;5052608;28;20045;-59
2023/04/18 02:23:38;;;;;;;12.05;8.32;;;;;8.40;98971.00;;;;5054022;28;20041;-59
2023/04/18 02:26:05;;;;;;;12.88;8.35;;;;;8.40;98975.00;;;;5054823;28;20048;-60
2023/04/18 02:28:31;;;;;;;16.10;8.93;;;;;8.40;98986.00;;;;5054028;28;20502;-60
2023/04/18 02:31:01;;;;;;;11.65;8.32;;;;;8.40;98978.00;;;;5053384;28;20068;-61
2023/04/18 02:33:28;;;;;;;15.50;8.27;;;;;8.30;98977.00;;;;5055143;28;20045;-59
2023/04/18 02:35:54;;;;;;;11.25;9.05;;;;;8.20;98976.00;;;;5056029;28;20049;-58
2023/04/18 02:38:21;;;;;;;13.43;8.88;;;;;8.00;98973.00;;;;5055092;28;20048;-59
2023/04/18 02:40:50;;;;;;;14.25;8.82;;;;;7.90;98973.00;;;;5053631;28;20045;-58
2023/04/18 02:43:19;;;;;;;11.18;9.00;;;;;7.90;98965.00;;;;5053439;28;20045;-58
2023/04/18 02:45:45;;;;;;;11.82;8.77;;;;;7.90;98968.00;;;;5053148;28;20114;-58
2023/04/18 02:48:12;;;;;;;9.43;8.43;;;;;7.90;98971.00;;;;5053073;28;20123;-60
2023/04/18 02:50:38;;;;;;;11.93;9.35;;;;;7.80;98972.00;;;;5053207;28;20045;-59
2023/04/18 02:53:05;;;;;;;10.48;8.70;;;;;7.80;98981.00;;;;5054451;28;20079;-59
2023/04/18 02:55:47;;;;;;;13.93;9.82;;;;;7.70;98985.00;;;;5053070;28;20041;-58
2023/04/18 02:58:15;;;;;;;13.50;9.00;;;;;7.70;98968.00;;;;5052932;28;20140;-59
2023/04/18 03:01:00;;;;;;;17.35;9.90;;;;;7.70;98972.00;;;;5055114;28;20067;-58
2023/04/18 03:03:52;;;;;;;13.75;10.02;;;;;7.60;98971.00;;;;5053801;28;20055;-57
2023/04/18 03:06:35;;;;;;;14.07;10.73;;;;;7.60;98974.00;;;;5052613;28;20048;-59
2023/04/18 03:09:03;;;;;;;13.18;10.40;;;;;7.60;98973.00;;;;5053592;28;20045;-59
2023/04/18 03:11:32;;;;;;;14.25;9.95;;;;;7.60;98975.00;;;;5051909;28;20098;-59
2023/04/18 03:13:59;;;;;;;12.80;9.98;;;;;7.60;98966.00;;;;5052165;28;20436;-60
2023/04/18 03:16:32;;;;;;;16.98;11.18;;;;;7.60;98973.00;;;;5052061;28;20477;-58
2023/04/18 03:19:00;;;;;;;13.15;10.10;;;;;7.60;98975.00;;;;5052008;28;20063;-58
2023/04/18 03:21:28;;;;;;;14.85;11.07;;;;;7.70;98970.00;;;;5051880;28;20048;-58
2023/04/18 03:23:55;;;;;;;15.02;11.07;;;;;7.70;98978.00;;;;5052127;28;20072;-61
2023/04/18 03:26:23;;;;;;;12.98;9.98;;;;;7.70;98963.00;;;;5051734;28;20048;-59
2023/04/18 03:28:50;;;;;;;15.20;10.88;;;;;7.70;98975.00;;;;5051304;28;20057;-59
2023/04/18 03:31:17;;;;;;;16.33;11.80;;;;;7.60;98968.00;;;;5051535;28;20041;-60
2023/04/18 03:33:44;;;;;;;16.48;11.23;;;;;7.60;98964.00;;;;5051410;28;20045;-58
2023/04/18 03:36:14;;;;;;;14.40;11.55;;;;;7.70;98968.00;;;;5051459;28;20048;-58
2023/04/18 03:38:41;;;;;;;18.10;10.95;;;;;7.60;98964.00;;;;5051128;28;20122;-59
2023/04/18 03:41:08;;;;;;;15.70;11.55;;;;;7.60;98964.00;;;;5050764;28;20048;-60
2023/04/18 03:43:36;;;;;;;21.38;12.57;;;;;7.70;98960.00;;;;5051234;28;20053;-60
2023/04/18 03:46:03;;;;;;;16.80;10.93;;;;;7.70;98967.00;;;;5052583;28;20052;-60
2023/04/18 03:48:34;;;;;;;15.77;12.32;;;;;7.80;98968.00;;;;5050997;28;20103;-60
2023/04/18 03:51:04;;;;;;;15.88;11.40;;;;;7.80;98965.00;;;;5051151;28;20462;-60
2023/04/18 03:53:31;;;;;;;18.23;12.32;;;;;7.90;98965.00;;;;5051195;28;20048;-60
2023/04/18 03:55:59;;;;;;;19.75;12.00;;;;;7.90;98962.00;;;;5051073;28;20559;-61
2023/04/18 03:58:39;;;;;;;13.80;10.60;;;;;7.90;98964.00;;;;5051044;28;20417;-59
2023/04/18 04:01:06;;;;;;;19.58;12.82;;;;;7.90;98965.00;;;;5050807;28;20040;-60
2023/04/18 04:03:33;;;;;;;17.55;11.70;;;;;8.00;98973.00;;;;5034501;28;20071;-60
2023/04/18 04:05:59;;;;;;;15.20;11.80;;;;;8.10;98971.00;;;;5050955;28;20055;-60
2023/04/18 04:08:26;;;;;;;22.98;15.27;;;;;8.10;98973.00;;;;5050938;28;20055;-59
2023/04/18 04:10:54;;;;;;;20.10;12.85;;;;;8.20;98977.00;;;;5050734;28;20506;-60
2023/04/18 04:13:22;;;;;;;15.43;11.70;;;;;8.20;98971.00;;;;5050991;28;20049;-60
2023/04/18 04:15:49;;;;;;;16.80;11.75;;;;;8.20;98972.00;;;;5052062;28;20037;-59
2023/04/18 04:18:15;;;;;;;15.65;11.63;;;;;8.20;98978.00;;;;5052017;28;20043;-61
2023/04/18 04:20:44;;;;;;;15.23;11.68;;;;;8.20;98976.00;;;;5050344;28;20502;-61
2023/04/18 04:23:18;;;;;;;17.98;12.35;;;;;8.20;98982.00;;;;5050871;28;20102;-59
2023/04/18 04:25:46;;;;;;;17.25;11.85;;;;;8.30;98981.00;;;;5050785;28;20049;-61
2023/04/18 04:28:30;;;;;;;;;;;;;8.40;98981.00;;;;5036907;28;20056;-59
2023/04/18 04:31:01;;;;;;;17.75;12.15;;;;;8.30;98982.00;;;;5050782;28;19975;-58
2023/04/18 04:33:28;;;;;;;16.60;11.68;;;;;8.30;98981.00;;;;5052288;28;20049;-60
2023/04/18 04:36:00;;;;;;;19.90;12.10;;;;;8.30;98984.00;;;;5050568;28;20040;-60
2023/04/18 04:38:29;;;;;;;17.15;12.27;;;;;8.40;98983.00;;;;5050779;28;20524;-60
2023/04/18 04:40:57;;;;;;;16.27;11.65;;;;;8.40;98979.00;;;;5050720;28;20137;-61
2023/04/18 04:43:24;;;;;;;14.85;11.80;;;;;8.40;98982.00;;;;5050607;28;20056;-61
2023/04/18 04:45:51;;;;;;;16.75;13.02;;;;;8.40;98976.00;;;;5034394;28;20095;-60
2023/04/18 04:48:23;;;;;;;18.60;12.60;;;;;8.40;98986.00;;;;5050632;28;20111;-61
2023/04/18 04:50:59;;;;;;;16.77;12.18;;;;;8.40;98981.00;;;;5050340;28;20045;-60
2023/04/18 04:53:31;;;;;;;15.82;12.27;;;;;8.40;98988.00;;;;5053974;28;20049;-60
2023/04/18 04:55:59;;;;;;;14.85;11.35;;;;;8.50;98994.00;;;;5054655;28;20506;-60
2023/04/18 04:58:26;;;;;;;16.25;10.98;;;;;8.40;98988.00;;;;5055425;28;20156;-60
2023/04/18 05:01:00;;;;;;;16.83;11.10;;;;;8.40;98988.00;;;;5055112;28;20136;-59
2023/04/18 05:03:29;;;;;;;18.25;12.38;;;;;8.40;98985.00;;;;5055611;28;20417;-60
2023/04/18 05:05:56;;;;;;;18.02;11.88;;;;;8.40;98985.00;;;;5055144;28;20477;-59
2023/04/18 05:08:23;;;;;;;14.82;10.93;;;;;8.50;98996.00;;;;5055512;28;20041;-59
2023/04/18 05:10:49;;;;;;;16.45;10.88;;;;;8.50;98990.00;;;;5055497;28;20041;-59
2023/04/18 05:13:16;;;;;;;15.45;11.43;;;;;8.40;98991.00;;;;5055414;28;20045;-59
2023/04/18 05:15:43;;;;;;;13.10;10.93;;;;;8.40;98992.00;;;;5055782;28;20098;-59
2023/04/18 05:18:09;;;;;;;15.98;11.27;;;;;8.50;98993.00;;;;5055871;28;20110;-59
2023/04/18 05:20:36;;;;;;;16.40;11.48;;;;;8.40;98985.00;;;;5056497;28;20037;-60
2023/04/18 05:23:02;;;;;;;16.30;11.50;;;;;8.50;98991.00;;;;5056150;28;20102;-60
2023/04/18 05:25:30;;;;;;;15.13;10.88;;;;;8.50;98998.00;;;;5055545;28;20056;-59
2023/04/18 05:27:59;;;;;;;17.38;11.77;;;;;8.50;99000.00;;;;5055203;28;20502;-60
2023/04/18 05:30:25;;;;;;;22.08;11.65;;;;;8.50;99003.00;;;;5054929;28;20037;-60
2023/04/18 05:32:52;;;;;;;15.48;10.93;;;;;8.40;99000.00;;;;5054951;28;20440;-59
2023/04/18 05:35:18;;;;;;;17.02;11.85;;;;;8.50;98995.00;;;;5053900;28;20044;-60
2023/04/18 05:37:45;;;;;;;17.25;10.85;;;;;8.40;99003.00;;;;5055189;28;20041;-60
2023/04/18 05:40:14;;;;;;;16.63;11.80;;;;;8.50;99006.00;;;;5054835;28;20052;-60
2023/04/18 05:42:40;;;;;;;19.27;12.63;;;;;8.50;99006.00;;;;5054941;28;20048;-59
2023/04/18 05:45:07;;;;;;;21.65;12.25;;;;;8.50;99004.00;;;;5055065;28;20114;-60
2023/04/18 05:47:34;;;;;;;16.88;11.98;;;;;8.50;99006.00;;;;5054769;28;20045;-62
2023/04/18 05:50:00;;;;;;;17.25;11.43;;;;;8.60;99002.00;;;;5054819;28;20053;-60
2023/04/18 05:52:27;;;;;;;18.58;12.75;;;;;8.60;99010.00;;;;5054673;28;20047;-61
2023/04/18 05:54:53;;;;;;;13.50;11.30;;;;;8.60;99010.00;;;;5054700;28;20435;-61
2023/04/18 05:57:20;;;;;;;15.88;11.88;;;;;8.60;99014.00;;;;5054693;28;20048;-60
2023/04/18 05:59:46;;;;;;;15.82;11.25;;;;;8.70;99019.00;;;;5054350;28;20452;-61
2023/04/18 06:02:13;;;;;;;16.67;11.43;;;;;8.70;99020.00;;;;5054388;28;20543;-61
2023/04/18 06:04:40;;;;;;;16.70;11.20;;;;;8.70;99021.00;;;;5053990;28;20643;-59
2023/04/18 06:07:08;;;;;;;19.83;12.57;;;;;8.60;99024.00;;;;5054546;28;20051;-60
2023/04/18 06:09:35;;;;;;;18.83;11.80;;;;;8.60;99020.00;;;;5054258;28;20072;-60
2023/04/18 06:12:02;;;;;;;14.88;11.73;;;;;8.70;99026.00;;;;5054341;28;20049;-60
2023/04/18 06:14:28;;;;;;;21.75;12.55;;;;;8.70;99026.00;;;;5054311;28;20122;-60
2023/04/18 06:16:55;;;;;;;14.98;11.68;;;;;8.60;99039.00;;;;5052920;28;20460;-60
2023/04/18 06:19:21;;;;;;;19.45;12.80;;;;;8.60;99033.00;;;;5054359;28;20041;-59
2023/04/18 06:21:48;;;;;;;18.35;13.13;;;;;8.50;99034.00;;;;5054170;28;20037;-60
2023/04/18 06:24:15;;;;;;;15.95;11.68;;;;;8.50;99043.00;;;;5054376;28;20086;-60
2023/04/18 06:26:42;;;;;;;18.00;12.77;;;;;8.60;99037.00;;;;5054269;28;20464;-60
2023/04/18 06:29:09;;;;;;;19.48;13.27;;;;;8.70;99050.00;;;;5054189;28;20041;-60
2023/04/18 06:31:35;;;;;;;15.52;11.18;;;;;8.70;99044.00;;;;5053922;28;20076;-61
2023/04/18 06:34:02;;;;;;;17.05;11.68;;;;;8.90;99038.00;;;;5053487;28;20048;-60
2023/04/18 06:36:29;;;;;;;18.42;12.32;;;;;9.00;99042.00;;;;5053324;28;20501;-60
2023/04/18 06:38:55;;;;;;;18.17;11.30;;;;;9.10;99048.00;;;;5053095;28;20452;-60
2023/04/18 06:41:22;;;;;;;15.18;11.93;;;;;9.10;99052.00;;;;5054271;28;20188;-60
2023/04/18 06:43:48;;;;;;;21.50;11.95;;;;;9.10;99052.00;;;;5054328;28;20048;-60
2023/04/18 06:46:29;;;;;;;18.63;11.75;;;;;9.20;99057.00;;;;5054235;28;20457;-62
2023/04/18 06:48:56;;;;;;;16.95;11.30;;;;;9.20;99052.00;;;;5052452;28;20128;-60
2023/04/18 06:51:22;;;;;;;17.02;11.90;;;;;9.10;99060.00;;;;5053646;28;20067;-61
2023/04/18 06:53:51;;;;;;;16.45;11.68;;;;;9.20;99059.00;;;;5053731;28;20045;-60
2023/04/18 06:56:21;;;;;;;16.02;10.90;;;;;9.30;99056.00;;;;5053727;28;20458;-60
2023/04/18 06:58:48;;;;;;;15.25;11.35;;;;;9.40;99057.00;;;;5053315;28;20394;-60
2023/04/18 07:01:15;;;;;;;17.15;12.00;;;;;9.30;99058.00;;;;5053356;28;20075;-61
2023/04/18 07:03:41;;;;;;;16.60;11.80;;;;;9.20;99065.00;;;;5053360;28;20051;-61
2023/04/18 07:06:09;;;;;;;14.88;11.10;;;;;9.20;99057.00;;;;5053253;28;20040;-61
2023/04/18 07:08:36;;;;;;;17.48;11.50;;;;;9.30;99056.00;;;;5053064;28;20473;-61
2023/04/18 07:11:04;;;;;;;16.02;11.70;;;;;9.40;99056.00;;;;5053173;28;20094;-60
2023/04/18 07:13:30;;;;;;;16.30;11.55;;;;;9.50;99058.00;;;;5053091;28;20049;-60
2023/04/18 07:15:57;;;;;;;15.05;11.10;;;;;9.70;99062.00;;;;5052281;28;20087;-61
2023/04/18 07:18:23;;;;;;;16.05;12.07;;;;;9.70;99061.00;;;;5053076;28;20071;-61
2023/04/18 07:21:06;;;;;;;16.27;11.80;;;;;9.70;99059.00;;;;5052890;28;20049;-60
2023/04/18 07:23:32;;;;;;;23.73;16.88;;;;;9.80;99053.00;;;;5052905;28;20072;-60
2023/04/18 07:26:01;;;;;;;19.15;12.93;;;;;10.00;99048.00;;;;5052885;28;20041;-60
2023/04/18 07:28:28;;;;;;;16.42;11.80;;;;;10.10;99052.00;;;;5052752;28;20452;-60
2023/04/18 07:30:55;;;;;;;17.10;11.70;;;;;10.30;99051.00;;;;5052659;28;20041;-60
2023/04/18 07:33:23;;;;;;;15.43;11.90;;;;;10.30;99055.00;;;;5052775;28;20080;-60
2023/04/18 07:35:51;;;;;;;16.60;11.68;;;;;10.30;99054.00;;;;5052767;28;20049;-61
2023/04/18 07:38:18;;;;;;;15.63;12.05;;;;;10.20;99060.00;;;;5052643;28;20498;-61
2023/04/18 07:40:44;;;;;;;17.35;12.40;;;;;10.20;99059.00;;;;5052507;28;20044;-61
2023/04/18 07:43:11;;;;;;;16.48;12.07;;;;;10.10;99069.00;;;;5052629;28;20557;-61
2023/04/18 07:45:38;;;;;;;17.73;12.88;;;;;9.90;99074.00;;;;5052735;28;20108;-60
2023/04/18 07:48:04;;;;;;;16.13;12.32;;;;;9.90;99072.00;;;;5052550;28;20090;-60
2023/04/18 07:50:31;;;;;;;18.83;12.80;;;;;9.90;99062.00;;;;5052300;28;20052;-60
2023/04/18 07:52:57;;;;;;;21.65;12.95;;;;;9.90;99076.00;;;;5052176;28;20075;-60
2023/04/18 07:55:24;;;;;;;19.00;11.77;;;;;9.80;99070.00;;;;5052449;28;20391;-60
2023/04/18 07:57:50;;;;;;;16.33;11.35;;;;;9.90;99069.00;;;;5052452;28;20049;-60
2023/04/18 08:00:17;;;;;;;17.38;12.15;;;;;9.80;99079.00;;;;5050738;28;20053;-60
2023/04/18 08:02:44;;;;;;;17.30;12.73;;;;;9.80;99083.00;;;;5052087;28;20071;-61
2023/04/18 08:05:11;;;;;;;20.35;12.88;;;;;9.70;99073.00;;;;5052290;28;20044;-61
2023/04/18 08:07:37;;;;;;;17.63;12.65;;;;;9.80;99074.00;;;;5052250;28;20480;-59
2023/04/18 08:10:05;;;;;;;19.17;11.85;;;;;9.70;99081.00;;;;5051961;28;20094;-61
2023/04/18 08:12:31;;;;;;;17.88;12.48;;;;;9.70;99074.00;;;;5051064;28;20094;-61
2023/04/18 08:14:58;;;;;;;18.48;13.52;;;;;9.70;99074.00;;;;5051991;28;20051;-60
2023/04/18 08:17:24;;;;;;;24.25;16.17;;;;;9.70;99089.00;;;;5052027;28;20508;-61
2023/04/18 08:19:51;;;;;;;18.77;12.90;;;;;9.70;99096.00;;;;5050706;28;20048;-61
2023/04/18 08:22:17;;;;;;;20.85;13.32;;;;;9.60;99090.00;;;;5051960;28;20410;-60
2023/04/18 08:24:44;;;;;;;20.58;13.18;;;;;9.50;99097.00;;;;5050706;28;20690;-60
2023/04/18 08:27:30;;;;;;;17.33;13.25;;;;;9.60;99095.00;;;;5051622;28;20502;-60
2023/04/18 08:29:57;;;;;;;19.30;13.23;;;;;9.60;99092.00;;;;5034293;28;20087;-61
2023/04/18 08:32:23;;;;;;;19.95;12.32;;;;;9.60;99100.00;;;;5051797;28;20083;-61
2023/04/18 08:34:50;;;;;;;20.63;13.23;;;;;9.50;99100.00;;;;5051893;28;20045;-61
2023/04/18 08:37:16;;;;;;;20.38;13.57;;;;;9.40;99109.00;;;;5051939;28;20045;-61
2023/04/18 08:39:43;;;;;;;18.48;12.63;;;;;9.40;99112.00;;;;5051637;28;20048;-60
2023/04/18 08:42:15;;;;;;;23.80;14.27;;;;;9.40;99102.00;;;;5051606;28;20052;-61
2023/04/18 08:44:41;;;;;;;17.92;13.25;;;;;9.30;99105.00;;;;5050496;28;20049;-60
2023/04/18 08:47:08;;;;;;;18.48;13.25;;;;;9.40;99101.00;;;;5051770;28;20049;-60
2023/04/18 08:49:35;;;;;;;19.50;13.30;;;;;9.40;99102.00;;;;5051554;28;20071;-59
2023/04/18 08:52:08;;;;;;;18.10;12.70;;;;;9.50;99104.00;;;;5051896;28;20441;-59
2023/04/18 08:54:37;;;;;;;19.92;13.30;;;;;9.60;99105.00;;;;5050534;28;20405;-61
2023/04/18 08:57:08;;;;;;;18.63;12.07;;;;;9.60;99106.00;;;;5051651;28;20417;-61
2023/04/18 08:59:35;;;;;;;17.13;12.77;;;;;9.60;99116.00;;;;5051456;28;20063;-59
2023/04/18 09:02:04;;;;;;;18.42;13.15;;;;;9.70;99115.00;;;;5051682;28;20387;-59
2023/04/18 09:04:44;;;;;;;18.25;12.02;;;;;9.80;99125.00;;;;5051738;28;20116;-58
2023/04/18 09:07:13;;;;;;;18.45;12.13;;;;;9.90;99116.00;;;;5051684;28;20402;-59
2023/04/18 09:09:46;;;;;;;16.42;12.65;;;;;9.80;99119.00;;;;5051553;28;20045;-61
2023/04/18 09:12:24;;;;;;;15.38;11.95;;;;;9.80;99117.00;;;;5051623;28;20052;-59
2023/04/18 09:14:56;;;;;;;17.80;12.15;;;;;9.90;99115.00;;;;5051632;28;20041;-59
2023/04/18 09:17:33;;;;;;;18.10;12.10;;;;;9.90;99115.00;;;;5051612;28;20045;-60
2023/04/18 09:20:03;;;;;;;19.95;12.68;;;;;9.80;99126.00;;;;5051652;28;20136;-60
2023/04/18 09:22:50;;;;;;;19.50;12.57;;;;;9.80;99117.00;;;;5051407;28;20041;-60
2023/04/18 09:25:28;;;;;;;19.38;12.55;;;;;9.90;99107.00;;;;5051654;28;20045;-60
2023/04/18 09:27:59;;;;;;;18.67;12.05;;;;;10.00;99105.00;;;;5051440;28;20049;-58
2023/04/18 09:30:38;;;;;;;18.45;12.57;;;;;10.30;99101.00;;;;5051411;28;20049;-61
2023/04/18 09:33:09;;;;;;;22.85;15.07;;;;;10.40;99104.00;;;;5051431;28;20044;-58
2023/04/18 09:35:36;;;;;;;35.42;22.58;;;;;10.60;99097.00;;;;5051798;28;20051;-59
2023/04/18 09:38:04;;;;;;;17.45;12.68;;;;;10.70;99110.00;;;;5051869;28;20068;-60
2023/04/18 09:40:31;;;;;;;22.33;13.30;;;;;10.70;99106.00;;;;5054824;28;20044;-60
2023/04/18 09:42:58;;;;;;;17.65;13.00;;;;;10.70;99111.00;;;;5054686;28;20047;-59
2023/04/18 09:45:25;;;;;;;19.75;13.35;;;;;10.80;99106.00;;;;5054878;28;20548;-59
2023/04/18 09:47:53;;;;;;;20.15;12.95;;;;;11.00;99108.00;;;;5054931;28;20050;-59
2023/04/18 09:50:19;;;;;;;18.75;12.20;;;;;11.00;99106.00;;;;5054655;28;20536;-61
2023/04/18 09:52:47;;;;;;;23.90;12.57;;;;;10.90;99109.00;;;;5054675;28;20513;-60
2023/04/18 09:55:16;;;;;;;18.08;13.20;;;;;10.90;99114.00;;;;5054574;28;20049;-60
2023/04/18 09:57:45;;;;;;;19.10;12.95;;;;;10.90;99117.00;;;;5054494;28;20056;-59
2023/04/18 10:00:22;;;;;;;19.38;13.20;;;;;10.80;99118.00;;;;5054418;28;20040;-59
2023/04/18 10:03:04;;;;;;;17.15;12.65;;;;;10.90;99106.00;;;;5054363;28;20111;-60
2023/04/18 10:05:34;;;;;;;22.35;13.00;;;;;10.80;99113.00;;;;5053244;28;20585;-61
2023/04/18 10:08:01;;;;;;;18.67;13.00;;;;;10.90;99114.00;;;;5054323;28;20065;-59
2023/04/18 10:10:28;;;;;;;21.92;13.82;;;;;10.90;99111.00;;;;5054098;28;20045;-61
2023/04/18 10:12:58;;;;;;;19.88;14.13;;;;;10.90;99119.00;;;;5054058;28;20490;-59
2023/04/18 10:15:27;;;;;;;22.85;14.43;;;;;10.90;99116.00;;;;5054399;28;20048;-59
2023/04/18 10:18:01;;;;;;;19.00;13.45;;;;;10.70;99116.00;;;;5054303;28;20044;-60
2023/04/18 10:20:33;;;;;;;19.63;13.00;;;;;10.70;99115.00;;;;5054960;28;20429;-59
2023/04/18 10:23:33;;;;;;;18.77;12.82;;;;;10.60;99107.00;;;;5054721;28;20049;-59
2023/04/18 10:26:01;;;;;;;18.33;13.25;;;;;10.70;99106.00;;;;5054850;28;20072;-60
2023/04/18 10:28:51;;;;;;;19.70;13.77;;;;;10.80;99103.00;;;;5054628;28;20506;-58
2023/04/18 10:31:24;;;;;;;17.20;12.75;;;;;10.90;99103.00;;;;5054798;28;20844;-60
2023/04/18 10:34:00;;;;;;;20.98;13.80;;;;;11.00;99110.00;;;;5055076;28;20493;-59
2023/04/18 10:36:29;;;;;;;18.23;13.80;;;;;11.00;99104.00;;;;5060516;28;20457;-60
2023/04/18 10:39:02;;;;;;;18.60;12.82;;;;;11.00;99113.00;;;;5063676;28;20114;-60
2023/04/18 10:41:31;;;;;;;22.03;14.23;;;;;11.10;99102.00;;;;5061741;28;20449;-59
2023/04/18 10:44:07;;;;;;;18.63;13.07;;;;;11.30;99113.00;;;;5058355;28;20283;-58
2023/04/18 10:46:36;;;;;;;20.33;13.35;;;;;11.40;99095.00;;;;5054522;28;20079;-60
2023/04/18 10:49:15;;;;;;;20.17;13.65;;;;;11.60;99105.00;;;;5055933;28;20056;-59
2023/04/18 10:51:49;;;;;;;19.00;13.52;;;;;11.70;99093.00;;;;5058167;28;20144;-60
2023/04/18 10:54:21;;;;;;;17.48;12.35;;;;;11.70;99100.00;;;;5059614;28;20045;-59
2023/04/18 10:56:52;;;;;;;17.92;13.05;;;;;11.90;99096.00;;;;5059054;28;20053;-60
2023/04/18 10:59:21;;;;;;;19.02;12.63;;;;;11.80;99091.00;;;;5061122;28;20057;-61
2023/04/18 11:01:53;;;;;;;22.00;13.02;;;;;11.80;99092.00;;;;5058746;28;20052;-59
2023/04/18 11:04:20;;;;;;;16.80;12.88;;;;;11.80;99085.00;;;;5058064;28;20421;-59
2023/04/18 11:06:49;;;;;;;17.10;11.80;;;;;11.80;99093.00;;;;5058637;28;20102;-60
2023/04/18 11:09:15;;;;;;;21.05;13.07;;;;;11.70;99083.00;;;;5057702;28;20049;-59
2023/04/18 11:11:43;;;;;;;18.45;12.63;;;;;11.80;99079.00;;;;5058166;28;20044;-60
2023/04/18 11:14:10;;;;;;;20.90;12.40;;;;;12.00;99080.00;;;;5056645;28;20096;-61
2023/04/18 11:16:36;;;;;;;17.88;11.93;;;;;12.10;99065.00;;;;5060212;28;20079;-60
2023/04/18 11:19:20;;;;;;;17.70;12.18;;;;;12.40;99063.00;;;;5057873;28;20083;-61
2023/04/18 11:21:46;;;;;;;17.13;12.40;;;;;12.40;99073.00;;;;5053079;28;20041;-60
2023/04/18 11:24:21;;;;;;;20.70;14.88;;;;;12.60;99064.00;;;;5053111;28;20045;-60
2023/04/18 11:26:48;;;;;;;16.80;12.20;;;;;12.70;99061.00;;;;5053050;28;20102;-61
2023/04/18 11:29:16;;;;;;;16.45;11.68;;;;;12.90;99067.00;;;;5052764;28;20056;-60
2023/04/18 11:31:51;;;;;;;16.00;12.18;;;;;12.80;99056.00;;;;5053040;28;20044;-60
2023/04/18 11:34:18;;;;;;;15.23;11.45;;;;;12.90;99062.00;;;;5053554;28;20069;-60
2023/04/18 11:36:49;;;;;;;15.27;11.77;;;;;13.00;99063.00;;;;5053585;28;20102;-60
2023/04/18 11:39:17;;;;;;;18.92;12.85;;;;;13.10;99066.00;;;;5053193;28;20049;-60
2023/04/18 11:41:49;;;;;;;15.57;11.32;;;;;13.10;99064.00;;;;5052891;28;20044;-59
2023/04/18 11:44:17;;;;;;;14.88;11.05;;;;;13.30;99063.00;;;;5053580;28;20052;-60
2023/04/18 11:46:43;;;;;;;17.02;12.02;;;;;13.40;99048.00;;;;5053340;28;20508;-57
2023/04/18 11:49:31;;;;;;;16.65;11.02;;;;;13.80;99057.00;;;;5052861;28;20052;-59
2023/04/18 11:51:58;;;;;;;14.90;10.60;;;;;14.00;99051.00;;;;5052838;28;20047;-60
2023/04/18 11:54:35;;;;;;;14.27;10.38;;;;;14.30;99052.00;;;;5052822;28;20056;-59
2023/04/18 11:57:02;;;;;;;17.73;11.20;;;;;14.60;99048.00;;;;5053133;28;20410;-60
2023/04/18 11:59:28;;;;;;;13.55;9.60;;;;;14.60;99049.00;;;;5052757;28;20094;-60
2023/04/18 12:02:02;;;;;;;14.80;10.20;;;;;14.80;99051.00;;;;5052227;28;20041;-61
2023/04/18 12:04:58;;;;;;;13.00;9.63;;;;;14.90;99056.00;;;;5052806;28;20174;-60
2023/04/18 12:07:30;;;;;;;12.20;9.93;;;;;15.00;99055.00;;;;5052644;28;20052;-60
2023/04/18 12:09:57;;;;;;;12.27;9.13;;;;;15.20;99051.00;;;;5052356;28;20053;-61
2023/04/18 12:12:24;;;;;;;12.90;10.07;;;;;15.40;99043.00;;;;5052498;28;20088;-59
2023/04/18 12:15:02;;;;;;;11.70;9.07;;;;;15.50;99057.00;;;;5052562;28;20098;-58
2023/04/18 12:17:29;;;;;;;16.98;11.90;;;;;15.30;99059.00;;;;5052671;28;20045;-60